This is the latest recevied weather packets stored in our database for station/object HB9UQS-13. If no packets are shown the sender has not sent any weather packets the latest 10 day(s).
| Time | Temp. | Humidity | Pressure | Rain* | Wind** | Luminosity | Snow |
|---|---|---|---|---|---|---|---|
| 1777490021 | 12.78° C | 51% | 932.5 hPa | 0 mm | - | 0 W/m² | - |
| 1777488221 | 13.33° C | 55% | 932.2 hPa | 0 mm | - | 0 W/m² | - |
| 1777486421 | 13.89° C | 56% | 931.9 hPa | 0 mm | - | 0 W/m² | - |
| 1777484621 | 15° C | 55% | 931.6 hPa | 0 mm | - | 0 W/m² | - |
| 1777482821 | 16.11° C | 55% | 931.5 hPa | 0 mm | - | 0 W/m² | - |
| 1777481021 | 16.67° C | 51% | 931.7 hPa | 0 mm | - | 0 W/m² | - |
| 1777479221 | 17.22° C | 52% | 931.6 hPa | 0 mm | - | 0 W/m² | - |
| 1777477421 | 17.78° C | 53% | 931.6 hPa | 0 mm | - | 0 W/m² | - |
| 1777475621 | 17.78° C | 52% | 931.6 hPa | 0 mm | - | 0 W/m² | - |
| 1777473821 | 16.67° C | 54% | 931.6 hPa | 0 mm | - | 0 W/m² | - |
| 1777472021 | 16.11° C | 57% | 931.6 hPa | 0 mm | - | 0 W/m² | - |
| 1777470221 | 15.56° C | 62% | 931.7 hPa | 0 mm | - | 0 W/m² | - |
| 1777468421 | 15.56° C | 63% | 931.8 hPa | 0 mm | - | 0 W/m² | - |
| 1777466621 | 15.56° C | 63% | 931.7 hPa | 0 mm | - | 0 W/m² | - |
| 1777464821 | 16.11° C | 62% | 931.8 hPa | 0 mm | - | 0 W/m² | - |
| 1777463022 | 15° C | 65% | 931.8 hPa | 0 mm | - | 0 W/m² | - |
| 1777461222 | 15.56° C | 67% | 931.7 hPa | 0 mm | - | 0 W/m² | - |
| 1777459421 | 15.56° C | 66% | 931.7 hPa | 0 mm | - | 0 W/m² | - |
| 1777457621 | 15° C | 71% | 931.9 hPa | 0 mm | - | 0 W/m² | - |
| 1777455821 | 12.78° C | 75% | 931.7 hPa | 0 mm | - | 0 W/m² | - |
| 1777454022 | 12.78° C | 75% | 931.6 hPa | 0 mm | - | 0 W/m² | - |
| 1777452221 | 11.11° C | 82% | 931.7 hPa | 0 mm | - | 0 W/m² | - |
| 1777450421 | 10.56° C | 83% | 931.3 hPa | 0 mm | - | 0 W/m² | - |
| 1777448621 | 10° C | 83% | 931.3 hPa | 0 mm | - | 0 W/m² | - |
| 1777446821 | 10° C | 84% | 931.2 hPa | 0 mm | - | 0 W/m² | - |
* Rain latest hour (hover to see other rain measurements)
** Current wind speed in m/s (hover to see current wind gust speed)